Nyk Apollo — HOQM — position and weather

sailwx.info

Track history (hours):
 
Tides and Currents Weather Stations Pressure Air Temp Water Temp Dewpoint Dewpoint Depression Visibility Wind Speed Wind Dir Waves Ship Positions

Nyk Apollo

Last reported at 2018-Jan-19 04:43 UTC. Time now 2018-Jan-19 15:21 UTC.
Position N 22°30' E 119°44'.

Length 299.9 m; beam 40 m.

Type: Cargo ship. MMSI: 355981000.

Date/timePositionNaut miles runAvg speedWind from/ knotsBaromVisibWave heightAir tempDewpointWater temp
2018-Jan-19 04:43N 22°30' E 119°44'520.6
2018-Jan-19 04:28N 22°31' E 119°50'1021.2
2018-Jan-19 04:01N 22°32' E 120°00'1020.3
2018-Jan-19 03:30N 22°33' E 120°11'714.2
2018-Jan-19 03:00N 22°33' E 120°19'1 2.6
2018-Jan-19 02:30N 22°33' E 120°20'0 0.6
2018-Jan-19 01:59N 22°33' E 120°20'0 0.1
2018-Jan-19 01:29N 22°33' E 120°20'0 0.0
2018-Jan-19 00:59N 22°33' E 120°20'0 0.0
2018-Jan-19 00:29N 22°33' E 120°20'0 0.0
2018-Jan-18 23:56N 22°33' E 120°20'0 0.0
2018-Jan-18 23:29N 22°33' E 120°20'0 0.0
2018-Jan-18 22:59N 22°33' E 120°20'0 0.1
2018-Jan-18 22:29N 22°33' E 120°20'0 0.0
2018-Jan-18 21:59N 22°33' E 120°20'0 0.1
2018-Jan-18 21:29N 22°33' E 120°20'0 0.0
2018-Jan-18 20:59N 22°33' E 120°20'0 0.0
2018-Jan-18 20:29N 22°33' E 120°20'0 0.0
2018-Jan-18 19:59N 22°33' E 120°20'0 0.0
2018-Jan-18 19:29N 22°33' E 120°20'0 0.0
2018-Jan-18 18:59N 22°33' E 120°20'0 0.0
2018-Jan-18 18:29N 22°33' E 120°20'0 0.0
2018-Jan-18 17:59N 22°33' E 120°20'0 0.0
2018-Jan-18 17:29N 22°33' E 120°20'1 1.1
2018-Jan-18 17:00N 22°33' E 120°19'3 5.9
2018-Jan-18 16:31N 22°33' E 120°16'2 4.1
2018-Jan-18 16:01N 22°32' E 120°14'3 6.8
2018-Jan-18 15:30N 22°31' E 120°11'3 5.5
2018-Jan-18 15:00N 22°30' E 120°08'2 3.0
2018-Jan-18 14:30N 22°30' E 120°06'3 7.1
2018-Jan-18 14:00N 22°29' E 120°03'2 4.8
2018-Jan-18 13:30N 22°28' E 120°00'4 7.3
2018-Jan-18 13:00N 22°27' E 119°56'611.7
2018-Jan-18 12:30N 22°26' E 119°50'612.2
2018-Jan-18 11:58N 22°24' E 119°43'613.7
2018-Jan-18 11:31N 22°20' E 119°38'714.0
2018-Jan-18 10:59N 22°14' E 119°33'  
2018-Jan-09 21:23N 01°16' E 104°11'814.1
2018-Jan-09 20:47N 01°15' E 104°03'713.9
2018-Jan-09 20:17N 01°14' E 103°56'414.0
2018-Jan-09 19:59N 01°12' E 103°52'4 8.2
2018-Jan-09 19:30N 01°12' E 103°48'4 7.0
2018-Jan-09 19:00N 01°15' E 103°46'2 4.0
2018-Jan-09 18:31N 01°17' E 103°46'0 0.2
2018-Jan-09 17:57N 01°17' E 103°46'0 0.0
2018-Jan-09 17:30N 01°17' E 103°46'0 0.0
2018-Jan-09 16:51N 01°17' E 103°46'0 0.0
2018-Jan-09 16:30N 01°17' E 103°46'0 0.0
2018-Jan-09 15:57N 01°17' E 103°46'0 0.0
2018-Jan-09 15:30N 01°17' E 103°46'0 0.0
2018-Jan-09 14:57N 01°17' E 103°46'0 0.0
2018-Jan-09 14:30N 01°17' E 103°46'0 0.0
2018-Jan-09 13:54N 01°17' E 103°46'0 0.0
2018-Jan-09 13:30N 01°17' E 103°46'0 0.0
2018-Jan-09 12:54N 01°17' E 103°46'0 0.0
2018-Jan-09 12:30N 01°17' E 103°46'0 0.0
2018-Jan-09 11:57N 01°17' E 103°46'0 0.0
2018-Jan-09 11:30N 01°17' E 103°46'0 0.0
2018-Jan-09 10:57N 01°17' E 103°46'0 0.1
2018-Jan-09 10:30N 01°17' E 103°46'0 0.0
2018-Jan-09 09:57N 01°17' E 103°46'0 0.0
2018-Jan-09 09:27N 01°17' E 103°46'0 0.0
2018-Jan-09 08:57N 01°17' E 103°46'0 0.0
2018-Jan-09 08:30N 01°17' E 103°46'0 0.0
2018-Jan-09 07:54N 01°17' E 103°46'0 0.0
2018-Jan-09 07:27N 01°17' E 103°46'0 0.0
2018-Jan-09 06:57N 01°17' E 103°46'0 0.0
2018-Jan-09 06:27N 01°17' E 103°46'0 0.0
2018-Jan-09 05:57N 01°17' E 103°46'0 0.0
2018-Jan-09 05:30N 01°17' E 103°46'0 0.0
2018-Jan-09 04:51N 01°17' E 103°46'  
Track history (hours):
 
Tides and Currents Weather Stations Pressure Air Temp Water Temp Dewpoint Dewpoint Depression Visibility Wind Speed Wind Dir Waves Ship Positions

Nyk Apollo

Last reported at 2018-Jan-19 04:43 UTC. Time now 2018-Jan-19 15:21 UTC.
Position N 22°30' E 119°44'.

Length 299.9 m; beam 40 m.

Type: Cargo ship. MMSI: 355981000.

Date/timePositionNaut miles runAvg speedWind from/ knotsBaromVisibWave heightAir tempDewpointWater temp
2018-Jan-19 04:43N 22°30' E 119°44'520.6
2018-Jan-19 04:28N 22°31' E 119°50'1021.2
2018-Jan-19 04:01N 22°32' E 120°00'1020.3
2018-Jan-19 03:30N 22°33' E 120°11'714.2
2018-Jan-19 03:00N 22°33' E 120°19'1 2.6
2018-Jan-19 02:30N 22°33' E 120°20'0 0.6
2018-Jan-19 01:59N 22°33' E 120°20'0 0.1
2018-Jan-19 01:29N 22°33' E 120°20'0 0.0
2018-Jan-19 00:59N 22°33' E 120°20'0 0.0
2018-Jan-19 00:29N 22°33' E 120°20'0 0.0
2018-Jan-18 23:56N 22°33' E 120°20'0 0.0
2018-Jan-18 23:29N 22°33' E 120°20'0 0.0
2018-Jan-18 22:59N 22°33' E 120°20'0 0.1
2018-Jan-18 22:29N 22°33' E 120°20'0 0.0
2018-Jan-18 21:59N 22°33' E 120°20'0 0.1
2018-Jan-18 21:29N 22°33' E 120°20'0 0.0
2018-Jan-18 20:59N 22°33' E 120°20'0 0.0
2018-Jan-18 20:29N 22°33' E 120°20'0 0.0
2018-Jan-18 19:59N 22°33' E 120°20'0 0.0
2018-Jan-18 19:29N 22°33' E 120°20'0 0.0
2018-Jan-18 18:59N 22°33' E 120°20'0 0.0
2018-Jan-18 18:29N 22°33' E 120°20'0 0.0
2018-Jan-18 17:59N 22°33' E 120°20'0 0.0
2018-Jan-18 17:29N 22°33' E 120°20'1 1.1
2018-Jan-18 17:00N 22°33' E 120°19'3 5.9
2018-Jan-18 16:31N 22°33' E 120°16'2 4.1
2018-Jan-18 16:01N 22°32' E 120°14'3 6.8
2018-Jan-18 15:30N 22°31' E 120°11'3 5.5
2018-Jan-18 15:00N 22°30' E 120°08'2 3.0
2018-Jan-18 14:30N 22°30' E 120°06'3 7.1
2018-Jan-18 14:00N 22°29' E 120°03'2 4.8
2018-Jan-18 13:30N 22°28' E 120°00'4 7.3
2018-Jan-18 13:00N 22°27' E 119°56'611.7
2018-Jan-18 12:30N 22°26' E 119°50'612.2
2018-Jan-18 11:58N 22°24' E 119°43'613.7
2018-Jan-18 11:31N 22°20' E 119°38'714.0
2018-Jan-18 10:59N 22°14' E 119°33'  
2018-Jan-09 21:23N 01°16' E 104°11'814.1
2018-Jan-09 20:47N 01°15' E 104°03'713.9
2018-Jan-09 20:17N 01°14' E 103°56'414.0
2018-Jan-09 19:59N 01°12' E 103°52'4 8.2
2018-Jan-09 19:30N 01°12' E 103°48'4 7.0
2018-Jan-09 19:00N 01°15' E 103°46'2 4.0
2018-Jan-09 18:31N 01°17' E 103°46'0 0.2
2018-Jan-09 17:57N 01°17' E 103°46'0 0.0
2018-Jan-09 17:30N 01°17' E 103°46'0 0.0
2018-Jan-09 16:51N 01°17' E 103°46'0 0.0
2018-Jan-09 16:30N 01°17' E 103°46'0 0.0
2018-Jan-09 15:57N 01°17' E 103°46'0 0.0
2018-Jan-09 15:30N 01°17' E 103°46'0 0.0
2018-Jan-09 14:57N 01°17' E 103°46'0 0.0
2018-Jan-09 14:30N 01°17' E 103°46'0 0.0
2018-Jan-09 13:54N 01°17' E 103°46'0 0.0
2018-Jan-09 13:30N 01°17' E 103°46'0 0.0
2018-Jan-09 12:54N 01°17' E 103°46'0 0.0
2018-Jan-09 12:30N 01°17' E 103°46'0 0.0
2018-Jan-09 11:57N 01°17' E 103°46'0 0.0
2018-Jan-09 11:30N 01°17' E 103°46'0 0.0
2018-Jan-09 10:57N 01°17' E 103°46'0 0.1
2018-Jan-09 10:30N 01°17' E 103°46'0 0.0
2018-Jan-09 09:57N 01°17' E 103°46'0 0.0
2018-Jan-09 09:27N 01°17' E 103°46'0 0.0
2018-Jan-09 08:57N 01°17' E 103°46'0 0.0
2018-Jan-09 08:30N 01°17' E 103°46'0 0.0
2018-Jan-09 07:54N 01°17' E 103°46'0 0.0
2018-Jan-09 07:27N 01°17' E 103°46'0 0.0
2018-Jan-09 06:57N 01°17' E 103°46'0 0.0
2018-Jan-09 06:27N 01°17' E 103°46'0 0.0
2018-Jan-09 05:57N 01°17' E 103°46'0 0.0
2018-Jan-09 05:30N 01°17' E 103°46'0 0.0
2018-Jan-09 04:51N 01°17' E 103°46'  

Dump ship's entire track history